Time;durP1;ratioP1;P1;durP2;ratioP2;P2;SDS_P1;SDS_P2;PMS_P1;PMS_P2;Temp;Humidity;BMP_temperature;BMP_pressure;BME280_temperature;BME280_humidity;BME280_pressure;Samples;Min_cycle;Max_cycle;Signal;HPM_P1;HPM_P2
2022/07/23 04:01:15;;;;;;;10.77;8.90;;;22.10;95.40;;;;;;5573529;23;20375;-73
2022/07/23 04:03:41;;;;;;;9.73;8.45;;;22.00;95.70;;;;;;4975014;28;20054;-73
2022/07/23 04:06:07;;;;;;;9.50;7.80;;;22.00;95.50;;;;;;4973020;28;20035;-73
2022/07/23 04:08:32;;;;;;;12.23;7.95;;;22.00;95.30;;;;;;4974933;28;20062;-73
2022/07/23 04:10:58;;;;;;;9.07;8.18;;;22.00;95.30;;;;;;4974603;28;20086;-73
2022/07/23 04:13:23;;;;;;;11.35;7.95;;;21.90;95.20;;;;;;5000262;23;20385;-79
2022/07/23 04:15:50;;;;;;;12.40;8.13;;;22.00;95.10;;;;;;4979505;28;20050;-79
2022/07/23 04:18:17;;;;;;;11.52;7.65;;;22.00;95.10;;;;;;4994163;28;20034;-79
2022/07/23 04:20:43;;;;;;;9.40;8.05;;;22.00;95.20;;;;;;4979178;28;20095;-79
2022/07/23 04:23:09;;;;;;;11.75;7.88;;;22.00;95.30;;;;;;4979351;28;20043;-79
2022/07/23 04:25:35;;;;;;;8.80;7.45;;;21.90;95.30;;;;;;4978931;28;20054;-79
2022/07/23 04:28:01;;;;;;;10.32;8.15;;;22.00;95.40;;;;;;4978565;28;20031;-79
2022/07/23 04:30:26;;;;;;;9.50;8.60;;;21.90;95.50;;;;;;4979263;28;20046;-79
2022/07/23 04:32:52;;;;;;;8.98;7.78;;;21.70;95.60;;;;;;4980397;28;20032;-79
2022/07/23 04:35:17;;;;;;;10.23;8.35;;;21.90;95.70;;;;;;4979518;28;20122;-79
2022/07/23 04:37:43;;;;;;;11.60;8.00;;;21.80;95.80;;;;;;4981350;28;20125;-79
2022/07/23 04:40:09;;;;;;;11.50;8.30;;;21.80;95.70;;;;;;4980553;28;20460;-79
2022/07/23 04:42:34;;;;;;;10.70;8.77;;;21.80;95.80;;;;;;4980656;28;20043;-79
2022/07/23 04:45:00;;;;;;;10.52;9.15;;;22.00;95.70;;;;;;4979648;28;20397;-79
2022/07/23 04:47:25;;;;;;;11.90;8.85;;;22.10;95.60;;;;;;4981764;28;20490;-79
2022/07/23 04:49:51;;;;;;;10.07;8.98;;;22.10;95.40;;;;;;4981565;28;20075;-79
2022/07/23 04:52:16;;;;;;;11.82;8.90;;;22.20;95.30;;;;;;4981246;28;20058;-79
2022/07/23 04:54:42;;;;;;;13.27;9.00;;;22.20;95.20;;;;;;4982571;28;20035;-79
2022/07/23 04:57:07;;;;;;;12.82;8.75;;;22.30;95.30;;;;;;4983361;28;20099;-79
2022/07/23 04:59:33;;;;;;;10.60;9.10;;;22.20;95.10;;;;;;4979968;28;20054;-79
2022/07/23 05:01:58;;;;;;;13.77;9.35;;;22.10;95.20;;;;;;4981170;28;20126;-79
2022/07/23 05:04:24;;;;;;;12.32;8.82;;;22.20;95.20;;;;;;4978853;28;20039;-79
2022/07/23 05:06:50;;;;;;;11.15;8.60;;;22.10;95.20;;;;;;4980661;28;20400;-79
2022/07/23 05:09:15;;;;;;;12.05;8.85;;;22.20;95.30;;;;;;4980829;28;20751;-79
2022/07/23 05:11:41;;;;;;;9.82;8.68;;;21.80;95.20;;;;;;4981896;28;20042;-80
2022/07/23 05:14:06;;;;;;;9.88;8.80;;;22.10;95.30;;;;;;4982740;28;20406;-80
2022/07/23 05:16:32;;;;;;;10.38;8.63;;;22.20;95.30;;;;;;4984149;28;20174;-79
2022/07/23 05:18:57;;;;;;;10.30;9.10;;;22.00;95.80;;;;;;4983016;28;20485;-79
2022/07/23 05:21:23;;;;;;;9.65;8.57;;;22.00;96.50;;;;;;4991014;28;20031;-79
2022/07/23 05:23:48;;;;;;;10.25;8.70;;;21.80;96.60;;;;;;4990128;28;20039;-80
2022/07/23 05:26:14;;;;;;;10.18;8.77;;;21.80;96.60;;;;;;4992428;28;20110;-80
2022/07/23 05:28:39;;;;;;;12.75;8.85;;;21.90;97.40;;;;;;4989605;28;20050;-79
2022/07/23 05:31:05;;;;;;;13.27;9.00;;;21.80;96.90;;;;;;4991700;28;20034;-80
2022/07/23 05:33:31;;;;;;;9.32;8.43;;;21.90;97.20;;;;;;4991264;28;20039;-79
2022/07/23 05:36:02;;;;;;;13.05;8.30;;;21.90;97.00;;;;;;4990490;28;20036;-79
2022/07/23 05:38:27;;;;;;;10.45;8.43;;;21.90;96.80;;;;;;4986460;28;20035;-80
2022/07/23 05:40:53;;;;;;;10.10;7.90;;;22.10;96.40;;;;;;4978502;28;20067;-80
2022/07/23 05:43:18;;;;;;;11.48;9.00;;;22.00;96.30;;;;;;4978390;28;20481;-81
2022/07/23 05:45:44;;;;;;;11.98;8.65;;;22.00;96.10;;;;;;4980631;28;20039;-81
2022/07/23 05:48:09;;;;;;;10.05;8.68;;;22.00;95.90;;;;;;4979147;28;20042;-80
2022/07/23 05:50:35;;;;;;;10.90;8.48;;;22.00;95.70;;;;;;4976907;28;20086;-82
2022/07/23 05:53:01;;;;;;;10.85;8.25;;;22.10;96.00;;;;;;4977682;28;20044;-82
2022/07/23 05:55:28;;;;;;;10.48;8.38;;;21.90;96.10;;;;;;4976746;28;20098;-81
2022/07/23 05:57:58;;;;;;;11.88;8.05;;;21.90;96.40;;;;;;4978890;28;20085;-81
2022/07/23 06:00:24;;;;;;;12.13;8.65;;;21.80;97.10;;;;;;4980162;28;20039;-81
2022/07/23 06:02:49;;;;;;;10.60;9.32;;;21.40;98.90;;;;;;4980344;28;20031;-80
2022/07/23 06:05:15;;;;;;;13.57;10.35;;;21.10;99.90;;;;;;4978910;28;20038;-76
2022/07/23 06:07:40;;;;;;;11.27;10.00;;;20.80;99.90;;;;;;4978352;28;20162;-80
2022/07/23 06:10:07;;;;;;;16.20;11.93;;;20.40;99.90;;;;;;4980618;28;20046;-80
2022/07/23 06:12:32;;;;;;;16.42;11.68;;;20.00;99.90;;;;;;4981950;28;20043;-81
2022/07/23 06:14:58;;;;;;;16.48;12.90;;;19.60;99.90;;;;;;4981382;28;20035;-82
2022/07/23 06:17:25;;;;;;;20.90;13.38;;;19.30;99.90;;;;;;4981026;28;20059;-80
2022/07/23 06:19:50;;;;;;;18.60;14.80;;;19.10;99.90;;;;;;4983041;28;20035;-81
2022/07/23 06:22:16;;;;;;;16.70;13.68;;;19.10;99.90;;;;;;4984308;28;20034;-81
2022/07/23 06:24:41;;;;;;;19.52;13.63;;;19.00;99.90;;;;;;4984847;28;20390;-81
2022/07/23 06:27:07;;;;;;;19.33;15.07;;;19.10;99.90;;;;;;4984029;28;20039;-82
2022/07/23 06:29:32;;;;;;;19.00;16.23;;;19.20;99.90;;;;;;4984197;28;20098;-81
2022/07/23 06:31:58;;;;;;;19.98;15.07;;;19.20;99.90;;;;;;4981424;28;20032;-80
2022/07/23 06:34:24;;;;;;;18.45;15.43;;;19.20;99.90;;;;;;4995165;28;20047;-82
2022/07/23 06:36:50;;;;;;;21.88;15.80;;;19.40;99.90;;;;;;4999665;28;20027;-83
2022/07/23 06:39:15;;;;;;;16.45;14.35;;;19.40;99.90;;;;;;5001961;28;20464;-79
2022/07/23 06:41:41;;;;;;;19.55;14.30;;;19.50;99.90;;;;;;5000666;28;20031;-82
2022/07/23 06:44:07;;;;;;;19.73;14.98;;;19.60;99.90;;;;;;4999709;28;20037;-82
2022/07/23 06:46:33;;;;;;;18.48;15.32;;;19.70;99.90;;;;;;4997827;28;20105;-81
2022/07/23 06:48:59;;;;;;;21.35;15.52;;;19.70;99.90;;;;;;4994750;28;20130;-80
2022/07/23 06:51:24;;;;;;;18.92;15.77;;;19.80;99.90;;;;;;4996159;28;20545;-81
2022/07/23 06:53:50;;;;;;;21.10;15.70;;;19.80;99.90;;;;;;4997136;28;20065;-81
2022/07/23 06:56:15;;;;;;;20.00;15.07;;;19.70;99.90;;;;;;4994644;28;20038;-79
2022/07/23 06:58:41;;;;;;;17.65;15.20;;;19.70;99.90;;;;;;4994982;28;20039;-80
2022/07/23 07:01:07;;;;;;;19.88;15.10;;;19.70;99.90;;;;;;4995997;28;20034;-80
2022/07/23 07:03:32;;;;;;;39.33;18.90;;;19.60;99.90;;;;;;4998722;28;20471;-80
2022/07/23 07:05:58;;;;;;;36.72;20.42;;;19.50;99.90;;;;;;4995438;28;20536;-79
2022/07/23 07:08:23;;;;;;;22.80;16.60;;;19.40;99.90;;;;;;4995917;28;20034;-78
2022/07/23 07:10:49;;;;;;;27.70;18.75;;;19.20;99.90;;;;;;4999111;28;20114;-78
2022/07/23 07:13:18;;;;;;;29.60;17.98;;;19.20;99.90;;;;;;4996202;28;20511;-80
2022/07/23 07:15:43;;;;;;;26.75;18.02;;;19.10;99.90;;;;;;4996897;28;20098;-78
2022/07/23 07:18:09;;;;;;;24.98;17.23;;;19.00;99.90;;;;;;4996179;28;20030;-79
2022/07/23 07:20:34;;;;;;;29.38;18.25;;;19.10;99.90;;;;;;4998045;28;20051;-80
2022/07/23 07:23:00;;;;;;;25.35;17.92;;;19.00;99.90;;;;;;4996180;28;20544;-79
2022/07/23 07:25:26;;;;;;;25.45;18.60;;;19.00;99.90;;;;;;4994902;28;20041;-78
2022/07/23 07:27:51;;;;;;;19.98;15.73;;;18.90;99.90;;;;;;4996748;28;20413;-78
2022/07/23 07:30:17;;;;;;;23.45;17.65;;;18.90;99.90;;;;;;4995339;28;20121;-83
2022/07/23 07:32:43;;;;;;;27.60;19.58;;;18.80;99.90;;;;;;4994887;28;20054;-78
2022/07/23 07:35:09;;;;;;;26.33;18.50;;;18.90;99.90;;;;;;4994799;28;20094;-78
2022/07/23 07:37:35;;;;;;;25.85;18.25;;;19.00;99.90;;;;;;4994678;28;20042;-78
2022/07/23 07:40:00;;;;;;;26.42;20.25;;;19.00;99.90;;;;;;4996162;28;20489;-78
2022/07/23 07:42:26;;;;;;;25.73;20.08;;;19.10;99.90;;;;;;4996171;28;20039;-78
2022/07/23 07:44:51;;;;;;;26.70;20.38;;;19.30;99.90;;;;;;4996030;28;20113;-78
2022/07/23 07:47:17;;;;;;;22.30;16.77;;;19.40;99.90;;;;;;4997145;28;20139;-77
2022/07/23 07:49:43;;;;;;;18.17;16.02;;;19.30;99.90;;;;;;4997440;28;20485;-79
2022/07/23 07:52:09;;;;;;;21.65;17.63;;;19.40;99.90;;;;;;4999927;28;20027;-82
2022/07/23 07:54:35;;;;;;;21.35;17.63;;;19.50;99.90;;;;;;4998051;28;20038;-77
2022/07/23 07:57:00;;;;;;;18.45;14.27;;;19.80;99.90;;;;;;4997880;28;20066;-77
2022/07/23 07:59:26;;;;;;;21.90;17.48;;;19.90;99.90;;;;;;4997793;28;20114;-77
2022/07/23 08:01:51;;;;;;;17.63;15.25;;;20.10;99.90;;;;;;4999520;28;20034;-77
2022/07/23 08:04:17;;;;;;;28.58;20.52;;;20.30;99.90;;;;;;4998806;28;20078;-78
2022/07/23 08:06:45;;;;;;;21.67;17.52;;;20.30;99.90;;;;;;4999865;28;20392;-80
2022/07/23 08:09:11;;;;;;;22.90;17.40;;;20.40;99.90;;;;;;4999879;28;20127;-78
2022/07/23 08:11:36;;;;;;;21.92;16.10;;;20.40;99.90;;;;;;4999286;28;20113;-78
2022/07/23 08:14:02;;;;;;;22.58;15.32;;;20.50;99.90;;;;;;4997932;28;20085;-78
2022/07/23 08:16:28;;;;;;;24.48;18.42;;;20.60;99.90;;;;;;4999011;28;20044;-78
2022/07/23 08:18:53;;;;;;;18.10;14.40;;;20.70;99.90;;;;;;4998771;28;20045;-78
2022/07/23 08:21:19;;;;;;;18.00;14.25;;;20.70;99.90;;;;;;4999338;28;20026;-78
2022/07/23 08:23:45;;;;;;;19.85;15.68;;;20.30;99.90;;;;;;4998975;28;20442;-78
2022/07/23 08:26:10;;;;;;;18.17;15.10;;;20.30;99.90;;;;;;4998679;28;20031;-78
2022/07/23 08:28:36;;;;;;;18.20;15.18;;;20.20;99.90;;;;;;4997206;28;20030;-80
2022/07/23 08:31:02;;;;;;;18.77;15.80;;;20.20;99.90;;;;;;4997245;28;20041;-78
2022/07/23 08:33:28;;;;;;;20.27;15.10;;;20.20;99.90;;;;;;4999013;28;20035;-78
2022/07/23 08:35:53;;;;;;;22.60;17.75;;;20.30;99.90;;;;;;4997155;28;20035;-78
2022/07/23 08:38:21;;;;;;;25.45;20.10;;;20.40;99.90;;;;;;4996820;28;20070;-77
2022/07/23 08:40:50;;;;;;;18.63;14.43;;;20.50;99.90;;;;;;4998439;28;20039;-78
2022/07/23 08:43:19;;;;;;;21.52;16.63;;;20.70;99.90;;;;;;4997915;28;20117;-78
2022/07/23 08:45:47;;;;;;;18.60;15.35;;;20.50;99.90;;;;;;4996326;28;20035;-78
2022/07/23 08:48:24;;;;;;;17.38;14.85;;;20.70;99.90;;;;;;4997954;28;20033;-78
2022/07/23 08:50:58;;;;;;;17.90;15.20;;;20.60;99.90;;;;;;4998148;28;20101;-78
2022/07/23 08:53:25;;;;;;;19.80;15.55;;;20.70;99.90;;;;;;4996366;28;20061;-79
2022/07/23 08:55:53;;;;;;;17.38;15.15;;;20.70;99.90;;;;;;4998787;28;20038;-79
2022/07/23 08:58:20;;;;;;;17.95;15.48;;;20.90;99.90;;;;;;4996945;28;20100;-82
2022/07/23 09:00:46;;;;;;;20.77;16.35;;;21.10;99.90;;;;;;4997017;28;20039;-81
2022/07/23 09:03:28;;;;;;;22.65;15.75;;;21.20;99.90;;;;;;4999379;28;20034;-81
2022/07/23 09:05:56;;;;;;;18.00;15.00;;;21.50;99.90;;;;;;4997669;28;20039;-80
2022/07/23 09:08:24;;;;;;;20.30;17.25;;;21.70;99.90;;;;;;5000073;28;20029;-80
2022/07/23 09:10:56;;;;;;;21.25;16.45;;;22.10;99.90;;;;;;4996830;28;20479;-80
2022/07/23 09:13:48;;;;;;;17.65;15.75;;;22.60;99.90;;;;;;4997457;28;20062;-80
2022/07/23 09:16:29;;;;;;;16.75;14.85;;;22.90;99.90;;;;;;4996391;28;20475;-80
2022/07/23 09:18:57;;;;;;;15.98;13.88;;;23.10;99.90;;;;;;4998650;28;20039;-80
2022/07/23 09:21:30;;;;;;;19.38;15.80;;;22.60;99.90;;;;;;4996941;28;20031;-80
2022/07/23 09:24:02;;;;;;;15.43;13.02;;;22.50;99.90;;;;;;4997511;28;20062;-81
2022/07/23 09:26:40;;;;;;;18.00;15.23;;;22.40;99.90;;;;;;4997573;28;20053;-80
2022/07/23 09:29:11;;;;;;;15.93;14.25;;;22.20;99.90;;;;;;4997064;28;20042;-80
2022/07/23 09:31:53;;;;;;;18.38;15.50;;;22.10;99.90;;;;;;4999425;28;20034;-80
2022/07/23 09:34:40;;;;;;;16.15;14.30;;;22.20;99.90;;;;;;4998438;28;20043;-79
2022/07/23 09:37:16;;;;;;;16.23;14.52;;;22.20;99.90;;;;;;4997722;28;20769;-80
2022/07/23 09:39:43;;;;;;;19.15;17.13;;;22.00;99.90;;;;;;4997927;28;20069;-81
2022/07/23 09:42:14;;;;;;;22.20;18.67;;;22.20;99.90;;;;;;4997616;28;20042;-80
2022/07/23 09:44:45;;;;;;;19.77;16.67;;;22.20;99.90;;;;;;4997306;28;20042;-80
2022/07/23 09:47:11;;;;;;;24.60;18.98;;;22.40;99.90;;;;;;4997622;28;20042;-80
2022/07/23 09:49:37;;;;;;;17.67;15.02;;;22.80;99.90;;;;;;4999523;28;20114;-80
2022/07/23 09:52:03;;;;;;;16.77;14.70;;;22.90;99.90;;;;;;4998105;28;20035;-80
2022/07/23 09:54:35;;;;;;;22.05;17.42;;;22.90;99.90;;;;;;4996086;28;20041;-80
2022/07/23 09:57:04;;;;;;;20.70;14.63;;;23.30;99.90;;;;;;4963922;28;20032;-79
2022/07/23 09:59:33;;;;;;;12.02;10.90;;;23.50;99.90;;;;;;4960687;28;20516;-80
2022/07/23 10:01:59;;;;;;;17.00;12.43;;;23.70;99.90;;;;;;4960956;28;20039;-80
2022/07/23 10:04:28;;;;;;;14.25;12.77;;;23.60;99.90;;;;;;4961294;28;20039;-80
2022/07/23 10:06:56;;;;;;;16.65;14.63;;;23.60;99.90;;;;;;4958967;28;20055;-80
2022/07/23 10:09:33;;;;;;;13.15;11.55;;;23.70;99.90;;;;;;4960467;28;20066;-80
2022/07/23 10:14:39;;;;;;;11.93;10.73;;;24.20;99.90;;;;;;4993002;23;20045;-78
2022/07/23 10:17:05;;;;;;;14.45;10.85;;;24.50;99.90;;;;;;4977615;28;20067;-82
2022/07/23 10:19:31;;;;;;;11.45;10.27;;;24.50;99.90;;;;;;4976628;28;20059;-74
2022/07/23 10:22:34;;;;;;;11.23;10.13;;;24.90;99.90;;;;;;4976804;28;20043;-76
2022/07/23 10:25:23;;;;;;;11.75;10.55;;;24.80;99.90;;;;;;4957102;28;20075;-75
2022/07/23 10:28:16;;;;;;;12.05;10.10;;;24.70;99.90;;;;;;4956366;28;20060;-74
2022/07/23 10:30:50;;;;;;;10.63;9.07;;;24.80;99.90;;;;;;4957065;28;20047;-75
2022/07/23 10:33:45;;;;;;;11.65;10.50;;;25.20;99.90;;;;;;4956257;28;20032;-79
2022/07/23 10:36:35;;;;;;;11.05;10.00;;;25.50;99.90;;;;;;4956882;28;20040;-73
2022/07/23 10:39:06;;;;;;;10.27;8.65;;;25.50;99.90;;;;;;4957024;28;20039;-74
2022/07/23 10:41:42;;;;;;;10.05;9.07;;;26.10;99.90;;;;;;4956880;28;20111;-78
2022/07/23 10:44:16;;;;;;;9.15;8.23;;;26.20;99.90;;;;;;4957074;28;20511;-73
2022/07/23 10:49:41;;;;;;;9.68;8.60;;;26.10;99.90;;;;;;4955524;28;20099;-74
2022/07/23 10:52:23;;;;;;;16.08;11.35;;;26.30;99.90;;;;;;4956024;28;20047;-77
2022/07/23 10:54:52;;;;;;;11.65;8.73;;;26.50;99.90;;;;;;4956223;28;20036;-73
2022/07/23 10:57:23;;;;;;;16.70;12.43;;;26.60;99.90;;;;;;4958882;28;20039;-73
2022/07/23 11:00:01;;;;;;;14.50;10.65;;;26.80;99.90;;;;;;4956440;28;20047;-74
2022/07/23 11:02:30;;;;;;;14.35;10.15;;;27.10;99.90;;;;;;4957194;28;20039;-74
2022/07/23 11:05:01;;;;;;;9.23;8.25;;;27.00;99.90;;;;;;4956978;28;20404;-73
2022/07/23 11:07:26;;;;;;;9.10;8.20;;;27.20;99.90;;;;;;4957196;28;20051;-75
2022/07/23 11:09:53;;;;;;;9.02;8.07;;;27.50;99.90;;;;;;4954782;28;20058;-74
2022/07/23 11:12:19;;;;;;;9.32;7.95;;;27.70;99.90;;;;;;4955596;28;20027;-75
2022/07/23 11:15:08;;;;;;;8.75;7.78;;;27.90;99.90;;;;;;4956737;28;20443;-75
2022/07/23 11:17:50;;;;;;;9.25;7.95;;;28.20;99.90;;;;;;4959556;28;20036;-75
2022/07/23 11:20:18;;;;;;;8.88;7.97;;;28.20;99.90;;;;;;4959427;28;20052;-75
2022/07/23 11:22:44;;;;;;;9.10;8.30;;;28.20;99.90;;;;;;4956731;28;20040;-75
2022/07/23 11:25:34;;;;;;;9.93;8.27;;;28.10;99.90;;;;;;4958097;28;20035;-74
2022/07/23 11:28:21;;;;;;;11.27;8.85;;;28.10;99.90;;;;;;4958474;28;20044;-75
2022/07/23 11:30:47;;;;;;;10.23;9.23;;;28.00;99.90;;;;;;4956702;28;20528;-74
2022/07/23 11:33:13;;;;;;;11.45;9.02;;;27.90;99.90;;;;;;4940735;28;20111;-79
2022/07/23 11:35:47;;;;;;;9.02;8.10;;;27.90;99.90;;;;;;4939049;28;20122;-75
2022/07/23 11:38:20;;;;;;;9.55;8.55;;;28.20;99.90;;;;;;4944356;28;20086;-77
2022/07/23 11:40:51;;;;;;;10.65;8.30;;;28.70;99.90;;;;;;4958674;28;20046;-75
2022/07/23 11:43:18;;;;;;;9.32;8.20;;;28.90;99.90;;;;;;4956780;28;20042;-74
2022/07/23 11:45:51;;;;;;;8.65;7.72;;;29.40;99.90;;;;;;4957416;28;20132;-75
2022/07/23 11:48:35;;;;;;;9.05;7.53;;;29.70;99.90;;;;;;4956454;28;20039;-73
2022/07/23 11:51:01;;;;;;;8.93;8.02;;;29.60;99.90;;;;;;4955975;28;20120;-75
2022/07/23 11:53:29;;;;;;;8.48;7.68;;;29.10;99.90;;;;;;4956260;28;20098;-77
2022/07/23 11:56:02;;;;;;;9.00;8.13;;;28.50;98.80;;;;;;4956276;28;20115;-75
2022/07/23 11:58:27;;;;;;;9.48;8.48;;;28.70;98.70;;;;;;4956217;28;20454;-76
2022/07/23 12:00:55;;;;;;;8.90;7.88;;;28.70;97.30;;;;;;4956512;28;20100;-80
2022/07/23 12:03:21;;;;;;;9.52;8.63;;;28.80;92.20;;;;;;4954350;28;20047;-76
2022/07/23 12:05:46;;;;;;;8.05;7.25;;;28.90;93.70;;;;;;4955227;28;20073;-80
2022/07/23 12:08:12;;;;;;;6.72;6.13;;;29.20;93.10;;;;;;4958281;28;20427;-75
2022/07/23 12:10:43;;;;;;;9.30;6.85;;;29.90;90.40;;;;;;4955188;28;20724;-74
2022/07/23 12:13:15;;;;;;;6.65;5.97;;;30.60;87.10;;;;;;4953444;28;20036;-74
2022/07/23 12:15:47;;;;;;;6.25;5.65;;;31.20;83.50;;;;;;4955048;28;20040;-74
2022/07/23 12:18:25;;;;;;;6.00;5.50;;;31.60;78.50;;;;;;4955458;28;20044;-74
2022/07/23 12:20:53;;;;;;;6.22;5.70;;;31.70;72.50;;;;;;4955185;28;20040;-76
2022/07/23 12:23:20;;;;;;;6.38;5.78;;;31.80;73.90;;;;;;4955215;28;20040;-75
2022/07/23 12:25:48;;;;;;;7.78;6.97;;;31.90;72.80;;;;;;4954931;28;20035;-75
2022/07/23 12:28:16;;;;;;;26.77;19.00;;;32.00;72.70;;;;;;4953318;28;20497;-75
2022/07/23 12:30:53;;;;;;;7.88;7.00;;;32.00;73.20;;;;;;4954718;28;20095;-74
2022/07/23 12:33:22;;;;;;;7.63;6.78;;;31.70;75.90;;;;;;4955354;28;20032;-75
2022/07/23 12:35:49;;;;;;;6.65;6.05;;;31.20;75.60;;;;;;4957414;28;20107;-75
2022/07/23 12:38:20;;;;;;;6.78;6.18;;;31.40;73.10;;;;;;4957245;28;20036;-74
2022/07/23 12:40:50;;;;;;;8.82;6.50;;;31.30;73.80;;;;;;4958352;28;20127;-74
2022/07/23 12:43:40;;;;;;;16.20;13.07;;;31.70;71.10;;;;;;4956455;28;20429;-74
2022/07/23 12:46:08;;;;;;;45.08;37.85;;;31.50;71.50;;;;;;4956176;28;20482;-74
2022/07/23 12:48:49;;;;;;;10.27;8.85;;;31.50;72.80;;;;;;4959386;28;20047;-75
2022/07/23 12:51:18;;;;;;;14.15;11.77;;;31.80;71.10;;;;;;4957926;28;20032;-75
2022/07/23 12:53:49;;;;;;;12.10;10.65;;;31.80;70.90;;;;;;4957476;28;20042;-75
2022/07/23 12:56:17;;;;;;;7.93;6.80;;;31.80;69.70;;;;;;4957351;28;20049;-74
2022/07/23 12:58:44;;;;;;;20.10;17.95;;;31.50;69.80;;;;;;4957810;28;20502;-74
2022/07/23 13:01:21;;;;;;;21.20;18.92;;;31.50;72.30;;;;;;4957859;28;20039;-74
2022/07/23 13:03:59;;;;;;;8.98;8.07;;;31.60;71.50;;;;;;4957747;28;20032;-75
2022/07/23 13:06:26;;;;;;;7.47;6.78;;;31.70;70.70;;;;;;4956936;28;20063;-74
2022/07/23 13:08:52;;;;;;;7.30;6.57;;;32.10;70.70;;;;;;4956226;28;20050;-74
2022/07/23 13:11:18;;;;;;;7.07;6.35;;;32.40;67.20;;;;;;4956568;28;20458;-75
2022/07/23 13:13:43;;;;;;;7.43;6.72;;;32.40;65.70;;;;;;4957478;28;20402;-76
2022/07/23 13:16:09;;;;;;;11.05;8.55;;;32.60;65.40;;;;;;4955593;28;20405;-75
2022/07/23 13:18:34;;;;;;;7.57;6.78;;;32.90;66.00;;;;;;4957229;28;20040;-75
2022/07/23 13:21:00;;;;;;;7.13;6.43;;;32.70;65.90;;;;;;4955980;28;20508;-75
2022/07/23 13:23:26;;;;;;;8.70;6.47;;;32.70;65.70;;;;;;4957899;28;20072;-75
2022/07/23 13:25:51;;;;;;;9.20;6.10;;;33.20;64.50;;;;;;4956959;28;20115;-75
2022/07/23 13:28:18;;;;;;;8.10;6.47;;;33.10;63.60;;;;;;4957456;28;20557;-75
2022/07/23 13:30:45;;;;;;;7.50;6.70;;;32.70;65.70;;;;;;4957879;28;20071;-75
2022/07/23 13:33:11;;;;;;;8.27;6.47;;;32.70;63.60;;;;;;4957196;28;20111;-75
2022/07/23 13:35:37;;;;;;;6.80;6.20;;;32.90;62.60;;;;;;4957230;28;20114;-75
2022/07/23 13:38:04;;;;;;;8.45;6.20;;;33.80;61.20;;;;;;4957872;28;20506;-75
2022/07/23 13:40:30;;;;;;;7.07;6.35;;;34.40;62.20;;;;;;4957806;28;20068;-76
2022/07/23 13:42:56;;;;;;;8.10;6.80;;;34.60;59.20;;;;;;4957001;28;20032;-76
2022/07/23 13:45:21;;;;;;;8.15;6.32;;;35.10;61.00;;;;;;4955854;28;20044;-76
2022/07/23 13:47:47;;;;;;;8.18;7.03;;;36.00;58.90;;;;;;4954764;28;20035;-75
2022/07/23 13:50:12;;;;;;;7.50;6.65;;;35.70;59.20;;;;;;4956773;28;20058;-75
2022/07/23 13:52:38;;;;;;;6.60;6.00;;;34.20;57.90;;;;;;4957735;28;20114;-75
2022/07/23 13:55:05;;;;;;;9.00;7.05;;;33.70;60.20;;;;;;4957736;28;20031;-76
2022/07/23 13:57:33;;;;;;;7.38;5.95;;;33.50;61.10;;;;;;4960018;28;20067;-75
2022/07/23 13:59:59;;;;;;;8.85;6.40;;;34.50;58.70;;;;;;4959684;28;20119;-75
2022/07/23 14:02:25;;;;;;;7.25;6.07;;;35.20;56.80;;;;;;4957188;28;20115;-76
2022/07/23 14:04:51;;;;;;;7.10;6.43;;;35.80;56.70;;;;;;4956454;28;20522;-76
2022/07/23 14:07:17;;;;;;;8.48;6.20;;;36.40;55.30;;;;;;4956696;28;20044;-76
2022/07/23 14:09:43;;;;;;;7.07;6.40;;;37.40;53.90;;;;;;4957149;28;20040;-76
2022/07/23 14:12:09;;;;;;;11.38;8.13;;;37.40;52.90;;;;;;4957141;28;20039;-76
2022/07/23 14:14:35;;;;;;;7.50;6.55;;;37.80;51.50;;;;;;4956340;28;20127;-75
2022/07/23 14:17:01;;;;;;;6.63;6.03;;;37.80;51.20;;;;;;4955709;28;20083;-75
2022/07/23 14:19:26;;;;;;;6.85;6.25;;;38.60;51.80;;;;;;4955408;28;20127;-75
2022/07/23 14:21:52;;;;;;;9.00;6.72;;;39.50;50.40;;;;;;4956544;28;20036;-76
2022/07/23 14:24:18;;;;;;;7.18;6.50;;;39.70;49.90;;;;;;4956750;28;20036;-76
2022/07/23 14:26:43;;;;;;;6.30;5.70;;;39.90;49.30;;;;;;4957060;28;20071;-76
2022/07/23 14:29:09;;;;;;;7.15;6.55;;;39.20;49.20;;;;;;4956564;28;20393;-76
2022/07/23 14:31:35;;;;;;;9.13;7.13;;;38.20;52.30;;;;;;4956474;28;20087;-76
2022/07/23 14:34:01;;;;;;;7.28;6.63;;;37.20;51.70;;;;;;4956300;28;20043;-75
2022/07/23 14:36:27;;;;;;;8.15;7.20;;;36.60;54.20;;;;;;4973632;28;20036;-75
2022/07/23 14:38:53;;;;;;;7.65;6.95;;;36.70;54.50;;;;;;4975624;28;20050;-76
2022/07/23 14:41:18;;;;;;;7.47;6.78;;;37.20;55.40;;;;;;4975545;28;20027;-76
2022/07/23 14:43:44;;;;;;;7.90;7.10;;;37.70;52.90;;;;;;4975654;28;20381;-76
2022/07/23 14:46:11;;;;;;;7.10;6.40;;;38.40;51.10;;;;;;4975677;28;20039;-76
2022/07/23 14:48:37;;;;;;;7.57;6.78;;;38.60;50.00;;;;;;4965068;28;20526;-75
2022/07/23 14:51:03;;;;;;;7.38;6.70;;;39.10;50.00;;;;;;4962034;28;20039;-76
2022/07/23 14:53:29;;;;;;;7.30;6.63;;;39.50;48.40;;;;;;4956317;28;20398;-75
2022/07/23 14:55:56;;;;;;;7.07;6.38;;;39.60;47.30;;;;;;4955837;28;20509;-75
2022/07/23 14:58:23;;;;;;;8.70;6.63;;;38.50;48.80;;;;;;4955053;28;20433;-76
2022/07/23 15:00:49;;;;;;;7.65;6.85;;;38.50;50.00;;;;;;4955786;28;20051;-75
2022/07/23 15:03:14;;;;;;;7.47;6.78;;;39.30;48.10;;;;;;4956005;28;20038;-76
2022/07/23 15:05:40;;;;;;;7.97;6.60;;;39.10;47.60;;;;;;4956009;28;20566;-76
2022/07/23 15:08:05;;;;;;;7.72;6.97;;;38.50;49.30;;;;;;4956438;28;20032;-75
2022/07/23 15:10:31;;;;;;;7.40;6.68;;;38.80;48.70;;;;;;4955913;28;20036;-75
2022/07/23 15:12:56;;;;;;;8.90;7.00;;;39.20;50.40;;;;;;4954113;28;20110;-75
2022/07/23 15:15:22;;;;;;;7.70;7.00;;;40.60;46.70;;;;;;4956195;28;20122;-75
2022/07/23 15:17:47;;;;;;;7.65;7.00;;;40.80;46.50;;;;;;4956965;28;20390;-76
2022/07/23 15:20:13;;;;;;;11.77;7.28;;;41.80;44.50;;;;;;4955784;28;20058;-77
2022/07/23 15:22:39;;;;;;;7.80;7.10;;;40.80;44.50;;;;;;4956599;28;20032;-76
2022/07/23 15:25:05;;;;;;;9.93;7.35;;;37.90;47.90;;;;;;4956069;28;20198;-83
2022/07/23 15:27:31;;;;;;;8.40;7.18;;;35.40;52.00;;;;;;4955572;28;20137;-75
2022/07/23 15:29:57;;;;;;;7.45;6.85;;;36.30;53.80;;;;;;4956152;28;20156;-75
2022/07/23 15:32:24;;;;;;;7.78;7.05;;;37.90;49.80;;;;;;4957463;28;20074;-75
2022/07/23 15:34:50;;;;;;;7.80;7.05;;;39.50;48.60;;;;;;4955273;28;20590;-75
2022/07/23 15:37:15;;;;;;;7.40;6.70;;;40.20;47.90;;;;;;4956207;28;20047;-75
2022/07/23 15:39:41;;;;;;;7.60;6.97;;;40.90;46.60;;;;;;4955394;28;20051;-76
2022/07/23 15:42:07;;;;;;;8.73;6.72;;;41.10;44.90;;;;;;4957933;28;20735;-76
2022/07/23 15:44:32;;;;;;;7.50;6.80;;;41.40;44.30;;;;;;4955171;28;20397;-76
2022/07/23 15:46:58;;;;;;;7.97;7.25;;;41.10;46.10;;;;;;4954609;28;20023;-76
2022/07/23 15:49:23;;;;;;;7.25;6.55;;;41.60;46.40;;;;;;4952771;28;20425;-76
2022/07/23 15:51:49;;;;;;;7.93;7.22;;;40.90;44.50;;;;;;4951979;28;20132;-76
2022/07/23 15:54:15;;;;;;;8.02;7.22;;;39.20;47.70;;;;;;4955760;28;20047;-73
2022/07/23 15:56:41;;;;;;;8.82;7.93;;;39.30;48.80;;;;;;4955981;28;20032;-77
2022/07/23 15:59:08;;;;;;;7.65;6.85;;;39.90;48.90;;;;;;4955695;28;20046;-76
2022/07/23 16:01:33;;;;;;;7.68;6.90;;;40.60;48.10;;;;;;4956482;28;20087;-76
2022/07/23 16:03:59;;;;;;;8.10;7.30;;;40.80;46.70;;;;;;4955496;28;20099;-75
2022/07/23 16:06:26;;;;;;;7.47;6.88;;;40.10;45.90;;;;;;4955196;28;20042;-76
2022/07/23 16:08:51;;;;;;;8.10;7.30;;;39.00;49.10;;;;;;4955627;28;20035;-74
2022/07/23 16:11:17;;;;;;;7.93;7.13;;;36.90;51.50;;;;;;4957639;28;20083;-76
2022/07/23 16:13:43;;;;;;;8.90;6.80;;;34.90;53.90;;;;;;4960207;28;20130;-76
2022/07/23 16:16:09;;;;;;;8.15;7.15;;;33.70;56.80;;;;;;4959185;28;20051;-75
2022/07/23 16:18:34;;;;;;;8.25;7.38;;;33.30;58.00;;;;;;4960271;28;20561;-75
2022/07/23 16:21:00;;;;;;;7.95;7.10;;;32.50;60.80;;;;;;4959052;28;20047;-79
2022/07/23 16:23:26;;;;;;;8.50;7.70;;;33.30;59.10;;;;;;4958164;28;20545;-76
2022/07/23 16:25:51;;;;;;;8.30;7.03;;;33.90;57.60;;;;;;4957413;28;20039;-75
2022/07/23 16:28:17;;;;;;;9.30;7.70;;;35.40;55.00;;;;;;4959020;28;20034;-76
2022/07/23 16:30:43;;;;;;;8.30;7.50;;;36.10;53.30;;;;;;4958746;28;20040;-75
2022/07/23 16:33:08;;;;;;;8.15;7.35;;;34.70;55.90;;;;;;4958474;28;20123;-74
2022/07/23 16:35:35;;;;;;;8.10;7.30;;;34.60;55.70;;;;;;4964977;28;20176;-74
2022/07/23 16:38:02;;;;;;;7.68;6.90;;;34.90;55.00;;;;;;4960674;28;20035;-75
2022/07/23 16:40:28;;;;;;;8.15;7.35;;;34.90;54.90;;;;;;4956933;28;20050;-75
2022/07/23 16:42:53;;;;;;;8.65;7.75;;;35.30;54.20;;;;;;4957786;28;20051;-75
2022/07/23 16:45:20;;;;;;;8.95;7.93;;;35.10;54.80;;;;;;4958212;28;20042;-74
2022/07/23 16:47:46;;;;;;;9.00;7.93;;;34.10;56.00;;;;;;4958247;28;20038;-74